Time;durP1;ratioP1;P1;durP2;ratioP2;P2;SDS_P1;SDS_P2;PMS_P1;PMS_P2;Temp;Humidity;BMP_temperature;BMP_pressure;BME280_temperature;BME280_humidity;BME280_pressure;Samples;Min_cycle;Max_cycle;Signal;HPM_P1;HPM_P2
2021/12/09 00:00:19;;;;;;;;;0.00;0.00;;;;;5.43;82.52;99807.38;4788337;29;47038;-79
2021/12/09 00:02:45;;;;;;;;;0.00;0.00;;;;;5.42;82.68;99810.88;4804927;29;45533;-78
2021/12/09 00:05:16;;;;;;;;;0.75;0.00;;;;;5.37;81.79;99789.56;4805016;29;45575;-78
2021/12/09 00:07:42;;;;;;;;;0.00;0.00;;;;;5.38;82.06;99792.06;4804727;29;47289;-79
2021/12/09 00:10:10;;;;;;;;;0.00;0.00;;;;;5.41;82.58;99807.44;4806832;29;46401;-79
2021/12/09 00:12:36;;;;;;;;;0.00;0.00;;;;;5.34;82.88;99780.22;4807892;29;45666;-79
2021/12/09 00:15:01;;;;;;;;;1.75;0.00;;;;;5.29;82.35;99776.25;4791919;29;45756;-77
2021/12/09 00:17:27;;;;;;;;;0.50;0.00;;;;;5.41;82.46;99802.25;4808038;29;45660;-76
2021/12/09 00:19:52;;;;;;;;;0.00;0.00;;;;;5.33;81.89;99788.94;4807708;29;46979;-79
2021/12/09 00:22:18;;;;;;;;;1.25;0.00;;;;;5.42;82.25;99803.09;4808105;29;45685;-77
2021/12/09 00:24:43;;;;;;;;;0.75;0.00;;;;;5.43;82.14;99804.78;4807925;29;45830;-79
2021/12/09 00:27:09;;;;;;;;;1.50;0.00;;;;;5.41;82.16;99798.81;4807864;29;46463;-78
2021/12/09 00:29:34;;;;;;;;;1.00;0.00;;;;;5.40;82.45;99794.56;4808092;29;45613;-79
2021/12/09 00:31:59;;;;;;;;;1.00;0.00;;;;;5.34;82.27;99788.00;4807782;29;45549;-79
2021/12/09 00:34:31;;;;;;;;;0.00;0.00;;;;;5.40;82.14;99800.59;4791537;29;45500;-78
2021/12/09 00:37:03;;;;;;;;;1.00;1.00;;;;;5.34;82.36;99788.00;4807843;29;46606;-78
2021/12/09 00:39:28;;;;;;;;;0.25;0.00;;;;;5.35;82.20;99784.47;4807721;29;46469;-77
2021/12/09 00:41:54;;;;;;;;;0.00;0.00;;;;;5.27;82.02;99773.75;4807922;29;45595;-79
2021/12/09 00:44:19;;;;;;;;;1.00;0.00;;;;;5.26;82.25;99789.41;4807508;29;45536;-77
2021/12/09 00:46:45;;;;;;;;;0.00;0.00;;;;;5.23;82.28;99784.41;4807498;29;45628;-80
2021/12/09 00:49:10;;;;;;;;;0.00;0.00;;;;;5.30;82.49;99806.44;4807631;29;45753;-79
2021/12/09 00:51:36;;;;;;;;;0.75;0.00;;;;;5.30;82.61;99803.84;4807565;29;45623;-79
2021/12/09 00:54:02;;;;;;;;;0.00;0.00;;;;;5.30;82.27;99809.88;4807862;29;45824;-79
2021/12/09 00:56:28;;;;;;;;;1.00;0.00;;;;;5.28;82.71;99803.97;4807685;29;46280;-78
2021/12/09 00:58:55;;;;;;;;;0.00;0.00;;;;;5.27;82.12;99820.47;4807128;29;46127;-79
2021/12/09 01:01:22;;;;;;;;;0.00;0.00;;;;;5.25;83.05;99814.53;4807996;29;45917;-77
2021/12/09 01:03:48;;;;;;;;;0.00;0.00;;;;;5.16;82.53;99801.28;4793142;29;45911;-77
2021/12/09 01:06:13;;;;;;;;;0.00;0.00;;;;;5.22;82.64;99812.13;4809969;29;45461;-79
2021/12/09 01:08:40;;;;;;;;;0.50;0.00;;;;;5.20;82.55;99806.19;4810994;29;45624;-79
2021/12/09 01:11:06;;;;;;;;;1.25;0.25;;;;;5.16;82.88;99806.47;4809594;29;45630;-79
2021/12/09 01:13:32;;;;;;;;;0.00;0.00;;;;;5.19;82.31;99809.72;4808091;29;45636;-78
2021/12/09 01:15:59;;;;;;;;;1.00;0.00;;;;;5.15;82.74;99804.81;4792632;29;45627;-79
2021/12/09 01:18:25;;;;;;;;;0.75;0.00;;;;;5.17;82.25;99803.81;4810176;29;47309;-78
2021/12/09 01:20:51;;;;;;;;;0.75;0.50;;;;;5.19;82.64;99806.28;4807693;29;45661;-79
2021/12/09 01:23:16;;;;;;;;;0.00;0.00;;;;;5.15;82.50;99805.66;4807569;29;45480;-79
2021/12/09 01:25:43;;;;;;;;;0.00;0.00;;;;;5.21;82.30;99820.00;4807323;29;45961;-78
2021/12/09 01:28:21;;;;;;;;;0.00;0.00;;;;;5.18;82.34;99818.47;4807491;29;46165;-78
2021/12/09 01:30:49;;;;;;;;;0.00;0.00;;;;;5.16;82.35;99820.31;4807379;29;45728;-79
2021/12/09 01:33:15;;;;;;;;;0.00;0.00;;;;;5.19;82.70;99822.69;4807251;29;45876;-79
2021/12/09 01:35:46;;;;;;;;;0.00;0.00;;;;;5.26;82.44;99838.75;4806895;29;45718;-79
2021/12/09 01:38:14;;;;;;;;;0.50;0.00;;;;;5.22;82.62;99826.88;4806992;29;45581;-78
2021/12/09 01:40:40;;;;;;;;;0.00;0.00;;;;;5.26;82.58;99836.13;4807399;29;45864;-79
2021/12/09 01:43:06;;;;;;;;;0.00;0.00;;;;;5.27;82.46;99830.03;4806948;29;45735;-78
2021/12/09 01:45:32;;;;;;;;;0.00;0.00;;;;;5.10;82.17;99805.09;4806260;29;46815;-78
2021/12/09 01:47:57;;;;;;;;;0.00;0.00;;;;;5.26;82.29;99836.97;4806333;29;46117;-76
2021/12/09 01:50:24;;;;;;;;;0.25;0.00;;;;;5.19;82.73;99820.09;4806652;29;45770;-79
2021/12/09 01:52:49;;;;;;;;;0.00;0.00;;;;;5.27;82.02;99843.84;4806693;29;45742;-77
2021/12/09 01:55:16;;;;;;;;;1.00;0.00;;;;;5.30;82.25;99855.78;4806256;29;46277;-79
2021/12/09 01:57:46;;;;;;;;;0.50;0.25;;;;;5.26;82.37;99836.13;4789873;29;46278;-79
2021/12/09 02:00:15;;;;;;;;;0.00;0.00;;;;;5.30;81.93;99843.66;4806262;29;45645;-79
2021/12/09 02:02:41;;;;;;;;;0.00;0.00;;;;;5.32;82.32;99841.78;4790080;29;45822;-78
2021/12/09 02:05:09;;;;;;;;;0.00;0.00;;;;;5.37;82.42;99854.50;4806543;29;45669;-79
2021/12/09 02:07:35;;;;;;;;;1.00;0.00;;;;;5.37;82.67;99859.69;4806556;29;46256;-79
2021/12/09 02:13:23;;;;;;;;;1.00;0.00;;;;;5.34;82.51;99850.34;4806469;29;45853;-79
2021/12/09 02:15:52;;;;;;;;;0.50;0.00;;;;;5.22;81.81;99837.25;4806442;29;45620;-79
2021/12/09 02:18:18;;;;;;;;;1.50;0.00;;;;;5.21;82.39;99848.56;4806437;29;47060;-77
2021/12/09 02:20:44;;;;;;;;;0.50;0.00;;;;;5.25;82.41;99858.66;4806375;29;45817;-79
2021/12/09 02:23:12;;;;;;;;;0.00;0.00;;;;;5.21;82.43;99849.41;4806416;29;45672;-78
2021/12/09 02:25:44;;;;;;;;;1.50;0.00;;;;;5.22;82.53;99855.44;4790237;29;46459;-79
2021/12/09 02:28:15;;;;;;;;;0.00;0.00;;;;;5.14;82.52;99844.69;4790147;29;46312;-79
2021/12/09 02:30:42;;;;;;;;;0.00;0.00;;;;;5.17;82.68;99847.94;4806586;29;45822;-78
2021/12/09 02:33:07;;;;;;;;;0.00;0.00;;;;;5.17;82.60;99857.50;4806208;29;45605;-78
2021/12/09 02:35:33;;;;;;;;;1.50;0.25;;;;;5.10;82.43;99858.78;4807198;29;45893;-77
2021/12/09 02:37:59;;;;;;;;;1.00;0.00;;;;;5.12;82.45;99851.75;4806881;29;45587;-78
2021/12/09 02:40:24;;;;;;;;;0.00;0.00;;;;;5.07;82.47;99857.22;4807462;29;45797;-77
2021/12/09 02:42:49;;;;;;;;;0.00;0.00;;;;;5.04;82.05;99854.78;4810241;29;45721;-78
2021/12/09 02:45:15;;;;;;;;;0.00;0.00;;;;;5.08;82.46;99859.69;4809242;29;46405;-79
2021/12/09 02:47:40;;;;;;;;;0.00;0.00;;;;;5.04;82.57;99841.81;4809399;29;45767;-79
2021/12/09 02:50:08;;;;;;;;;0.00;0.00;;;;;4.54;82.43;99770.44;4808338;29;45595;-79
2021/12/09 02:52:34;;;;;;;;;0.50;0.00;;;;;4.97;82.61;99846.53;4806297;29;45802;-79
2021/12/09 02:58:21;;;;;;;;;0.75;0.00;;;;;5.06;82.35;99856.38;4805850;29;46580;-79
2021/12/09 03:00:56;;;;;;;;;1.00;0.00;;;;;5.10;82.96;99863.97;4806064;29;45661;-78
2021/12/09 03:03:22;;;;;;;;;0.25;0.00;;;;;5.02;82.48;99844.50;4806045;29;45592;-78
2021/12/09 03:05:48;;;;;;;;;0.00;0.00;;;;;5.10;83.04;99870.00;4805981;29;46236;-78
2021/12/09 03:08:22;;;;;;;;;0.75;0.00;;;;;5.12;82.06;99865.56;4805871;29;46202;-79
2021/12/09 03:10:48;;;;;;;;;0.00;0.00;;;;;4.92;82.56;99830.41;4806056;29;45710;-77
2021/12/09 03:13:13;;;;;;;;;0.00;0.00;;;;;5.06;82.82;99863.31;4806005;29;45729;-79
2021/12/09 03:15:38;;;;;;;;;0.00;0.00;;;;;5.17;82.31;99873.06;4806116;29;46198;-79
2021/12/09 03:18:04;;;;;;;;;1.00;0.00;;;;;5.16;82.25;99867.03;4806288;29;45699;-78
2021/12/09 03:20:29;;;;;;;;;0.00;0.00;;;;;5.15;82.58;99857.56;4806083;29;45651;-79
2021/12/09 03:22:55;;;;;;;;;0.25;0.00;;;;;5.23;82.26;99873.53;4806032;29;45779;-77
2021/12/09 03:25:21;;;;;;;;;1.00;1.00;;;;;5.20;82.57;99857.28;4805865;29;46300;-80
2021/12/09 03:27:48;;;;;;;;;1.00;0.00;;;;;5.27;82.21;99869.81;4805314;29;46449;-79
2021/12/09 03:30:16;;;;;;;;;0.00;0.00;;;;;5.28;82.48;99873.25;4805268;29;45488;-79
2021/12/09 03:32:43;;;;;;;;;0.00;0.00;;;;;5.26;83.17;99875.94;4806024;29;45615;-79
2021/12/09 03:35:11;;;;;;;;;1.00;0.00;;;;;5.24;82.88;99869.16;4789320;29;46638;-79
2021/12/09 03:37:41;;;;;;;;;0.00;0.00;;;;;5.26;82.55;99878.53;4805645;29;45660;-78
2021/12/09 03:43:29;;;;;;;;;2.00;1.00;;;;;5.13;83.02;99872.41;4806587;29;45718;-78
2021/12/09 03:45:56;;;;;;;;;1.00;0.75;;;;;5.22;82.68;99881.41;4809437;29;45693;-80
2021/12/09 03:48:24;;;;;;;;;0.00;0.00;;;;;5.15;82.90;99867.13;4792230;29;47219;-79
2021/12/09 03:50:52;;;;;;;;;0.00;0.00;;;;;5.23;82.43;99883.09;4792482;29;45798;-79
2021/12/09 03:53:20;;;;;;;;;1.00;0.00;;;;;5.23;82.24;99888.28;4809072;29;45587;-79
2021/12/09 03:55:46;;;;;;;;;1.75;0.00;;;;;5.26;82.13;99883.72;4792126;29;45982;-78
2021/12/09 03:58:12;;;;;;;;;0.50;0.00;;;;;5.30;82.23;99889.53;4777102;29;46114;-79
2021/12/09 04:00:38;;;;;;;;;0.00;0.00;;;;;5.24;82.36;99882.13;4810912;29;45559;-78
2021/12/09 04:03:04;;;;;;;;;1.00;0.00;;;;;5.37;82.66;99893.44;4781547;29;45596;-79
2021/12/09 04:05:30;;;;;;;;;0.00;0.00;;;;;5.39;82.52;99894.19;4813279;29;45528;-79
2021/12/09 04:07:55;;;;;;;;;1.00;0.00;;;;;5.38;83.00;99897.72;4812642;29;45508;-80
2021/12/09 04:13:43;;;;;;;;;1.75;0.75;;;;;5.37;82.52;99890.84;4808571;29;45702;-79
2021/12/09 04:16:09;;;;;;;;;0.00;0.00;;;;;5.32;82.58;99882.50;4808267;29;46369;-79
2021/12/09 04:18:36;;;;;;;;;0.25;0.00;;;;;5.38;82.65;99895.97;4808366;29;46278;-79
2021/12/09 04:21:03;;;;;;;;;1.00;0.00;;;;;5.25;82.31;99871.66;4808588;29;45516;-79
2021/12/09 04:23:29;;;;;;;;;3.00;1.00;;;;;5.35;82.22;99895.28;4806581;29;45958;-81
2021/12/09 04:25:55;;;;;;;;;1.25;0.00;;;;;5.44;82.51;99907.75;4808240;29;46305;-79
2021/12/09 04:28:21;;;;;;;;;0.00;0.00;;;;;5.33;82.36;99891.97;4808410;29;45787;-80
2021/12/09 04:30:46;;;;;;;;;1.75;0.00;;;;;5.40;82.49;99894.09;4808367;29;45555;-79
2021/12/09 04:33:12;;;;;;;;;0.75;0.00;;;;;5.38;82.26;99887.34;4808118;29;45639;-79
2021/12/09 04:35:37;;;;;;;;;0.75;0.00;;;;;5.46;82.84;99903.25;4807911;29;45888;-79
2021/12/09 04:38:03;;;;;;;;;1.00;0.00;;;;;5.45;82.31;99905.03;4807951;29;45641;-78
2021/12/09 04:43:54;;;;;;;;;0.00;0.00;;;;;5.41;82.11;99889.72;4808262;29;45619;-79
2021/12/09 04:46:19;;;;;;;;;0.75;0.00;;;;;5.39;82.64;99889.84;4809914;29;45589;-80
2021/12/09 04:48:45;;;;;;;;;0.00;0.00;;;;;5.47;82.20;99904.94;4810205;29;45534;-78
2021/12/09 04:51:11;;;;;;;;;0.25;0.00;;;;;5.44;82.58;99903.38;4807592;29;45695;-79
2021/12/09 04:53:37;;;;;;;;;0.50;0.50;;;;;5.27;82.32;99882.78;4807449;29;45554;-79
2021/12/09 04:56:02;;;;;;;;;0.50;0.00;;;;;5.48;82.42;99909.22;4807109;29;45501;-79
2021/12/09 04:58:30;;;;;;;;;0.00;0.00;;;;;5.37;82.59;99889.09;4807447;29;46284;-78
2021/12/09 05:00:57;;;;;;;;;0.00;0.00;;;;;5.44;82.15;99905.16;4807537;29;45603;-78
2021/12/09 05:03:24;;;;;;;;;2.00;0.25;;;;;5.48;82.20;99906.63;4807516;29;45615;-78
2021/12/09 05:05:55;;;;;;;;;1.00;0.00;;;;;5.33;82.22;99882.44;4807730;29;46637;-79
2021/12/09 05:08:24;;;;;;;;;2.50;0.00;;;;;5.42;82.22;99902.63;4807328;29;46138;-80
2021/12/09 05:11:08;;;;;;;;;0.00;0.00;;;;;5.50;82.12;99912.56;4807364;29;45801;-78
2021/12/09 05:13:37;;;;;;;;;1.00;1.00;;;;;5.51;82.15;99910.81;4790645;29;45818;-79
2021/12/09 05:16:04;;;;;;;;;1.50;1.00;;;;;5.53;82.32;99916.72;4806920;29;46365;-79
2021/12/09 05:18:33;;;;;;;;;1.00;1.00;;;;;5.52;82.61;99910.69;4807080;29;45999;-79
2021/12/09 05:20:59;;;;;;;;;1.75;1.25;;;;;5.51;81.98;99909.00;4807254;29;45840;-78
2021/12/09 05:23:26;;;;;;;;;0.75;0.00;;;;;5.44;82.08;99902.53;4807424;29;45533;-78
2021/12/09 05:25:52;;;;;;;;;0.25;0.00;;;;;5.53;81.93;99914.97;4807113;29;47457;-78
2021/12/09 05:28:18;;;;;;;;;0.75;0.00;;;;;5.47;82.37;99915.34;4806964;29;47160;-79
2021/12/09 05:33:33;;;;;;;;;0.00;0.00;;;;;5.52;82.53;99910.69;4811395;29;45616;-79
2021/12/09 05:35:59;;;;;;;;;1.00;0.75;;;;;5.47;82.54;99912.72;4811073;29;46620;-78
2021/12/09 05:38:25;;;;;;;;;2.00;1.00;;;;;5.52;82.60;99913.28;4808967;29;45474;-78
2021/12/09 05:40:51;;;;;;;;;1.00;0.00;;;;;5.55;81.84;99920.91;4806959;29;45850;-79
2021/12/09 05:43:18;;;;;;;;;1.75;0.75;;;;;5.58;82.30;99927.66;4806910;29;45732;-79
2021/12/09 05:45:48;;;;;;;;;1.25;1.00;;;;;5.60;82.43;99938.81;4790368;29;45618;-79
2021/12/09 05:48:14;;;;;;;;;1.00;1.00;;;;;5.58;82.50;99928.50;4807015;29;46115;-78
2021/12/09 05:50:41;;;;;;;;;0.00;0.00;;;;;5.55;82.16;99927.88;4790051;29;45837;-79
2021/12/09 05:53:07;;;;;;;;;2.00;0.00;;;;;5.58;82.31;99938.06;4806608;29;45864;-78
2021/12/09 05:58:54;;;;;;;;;4.00;1.75;;;;;5.58;82.42;99928.50;4806288;29;46181;-78
2021/12/09 06:01:23;;;;;;;;;0.75;0.50;;;;;5.57;81.91;99939.81;4790070;29;45810;-79
2021/12/09 06:04:08;;;;;;;;;1.00;0.50;;;;;5.22;81.99;99876.22;4775895;29;45583;-79
2021/12/09 06:06:35;;;;;;;;;4.00;1.75;;;;;5.45;82.40;99918.00;4804631;29;47237;-79
2021/12/09 06:09:04;;;;;;;;;1.00;1.00;;;;;5.44;82.29;99923.31;4807104;29;46070;-79
2021/12/09 06:11:35;;;;;;;;;1.50;1.00;;;;;5.18;82.59;99887.72;4790287;29;46033;-78
2021/12/09 06:14:05;;;;;;;;;0.75;0.75;;;;;5.49;81.92;99942.06;4790798;29;45713;-79
2021/12/09 06:16:31;;;;;;;;;1.00;1.00;;;;;5.47;81.89;99928.31;4806818;29;46351;-77
2021/12/09 06:18:56;;;;;;;;;1.00;1.00;;;;;5.52;81.97;99938.44;4806624;29;46020;-79
2021/12/09 06:21:24;;;;;;;;;1.00;1.00;;;;;5.39;81.95;99922.78;4807044;29;45605;-79
2021/12/09 06:23:50;;;;;;;;;1.25;1.00;;;;;5.49;82.21;99948.09;4808364;29;45598;-80
2021/12/09 06:26:15;;;;;;;;;3.50;1.75;;;;;5.38;82.05;99934.91;4792219;29;46641;-78
2021/12/09 06:28:51;;;;;;;;;2.00;2.00;;;;;5.45;82.42;99953.56;5141398;27;45617;-79
2021/12/09 06:31:17;;;;;;;;;4.75;4.75;;;;;5.47;81.86;99955.13;5094964;27;45746;-80
2021/12/09 06:33:55;;;;;;;;;4.50;2.00;;;;;5.26;81.75;99922.66;5100649;27;45378;-78
2021/12/09 06:36:20;;;;;;;;;2.00;1.50;;;;;5.42;82.49;99943.34;5100469;27;45763;-77
2021/12/09 06:38:47;;;;;;;;;2.00;1.00;;;;;5.42;82.21;99946.78;5107678;27;47480;-79
2021/12/09 06:41:12;;;;;;;;;1.25;1.00;;;;;5.43;82.47;99947.63;5111332;27;45796;-79
2021/12/09 06:43:40;;;;;;;;;2.50;2.50;;;;;5.42;82.43;99951.97;5098654;27;45594;-78
2021/12/09 06:46:07;;;;;;;;;3.50;2.00;;;;;5.44;82.58;99964.88;5110181;27;47559;-80
2021/12/09 06:48:33;;;;;;;;;2.00;2.00;;;;;5.34;82.38;99953.38;5110568;27;46430;-79
2021/12/09 06:51:01;;;;;;;;;2.50;1.25;;;;;5.43;82.20;99973.59;5107371;27;45248;-79
2021/12/09 06:53:27;;;;;;;;;2.00;2.00;;;;;5.36;82.40;99970.53;5103748;27;45414;-80
2021/12/09 06:55:52;;;;;;;;;6.00;1.25;;;;;5.39;82.43;99966.94;5106158;27;45631;-79
2021/12/09 06:58:18;;;;;;;;;1.50;1.50;;;;;5.37;82.29;99969.59;5100446;27;45536;-80
2021/12/09 07:00:46;;;;;;;;;3.00;2.00;;;;;5.30;82.32;99973.47;5082257;27;45740;-80
2021/12/09 07:03:16;;;;;;;;;2.00;1.50;;;;;5.26;81.87;99963.38;5091067;27;45785;-77
2021/12/09 07:05:42;;;;;;;;;4.00;3.50;;;;;5.30;81.95;99978.69;5082719;27;45832;-79
2021/12/09 07:08:07;;;;;;;;;7.00;4.75;;;;;5.17;82.45;99966.53;5083822;27;45863;-79
2021/12/09 07:10:33;;;;;;;;;1.25;1.00;;;;;5.28;82.10;99992.69;5090542;27;45615;-79
2021/12/09 07:12:58;;;;;;;;;1.00;1.00;;;;;5.26;82.65;99994.53;5083654;27;45706;-78
2021/12/09 07:15:24;;;;;;;;;5.00;2.00;;;;;5.25;82.70;99992.84;5085326;27;46409;-80
2021/12/09 07:17:49;;;;;;;;;2.00;2.00;;;;;5.21;82.07;99987.03;5083744;27;46173;-79
2021/12/09 07:20:22;;;;;;;;;4.50;2.50;;;;;5.20;82.65;99980.16;5079424;27;45619;-78
2021/12/09 07:22:49;;;;;;;;;6.00;4.50;;;;;5.19;81.89;99991.47;5080473;27;45895;-79
2021/12/09 07:25:16;;;;;;;;;4.00;3.00;;;;;5.18;82.65;99991.56;5073444;27;46513;-78
2021/12/09 07:27:41;;;;;;;;;5.25;4.00;;;;;5.17;82.48;99992.50;5086503;27;46547;-80
2021/12/09 07:30:09;;;;;;;;;3.50;2.00;;;;;5.10;82.38;99980.78;5088775;27;46265;-78
2021/12/09 07:32:35;;;;;;;;;6.75;4.00;;;;;5.10;81.92;99983.38;5085582;27;45619;-78
2021/12/09 07:35:02;;;;;;;;;6.25;2.00;;;;;5.08;82.12;99984.31;5076929;27;46000;-79
2021/12/09 07:37:28;;;;;;;;;2.00;2.00;;;;;5.07;82.15;99985.22;5088332;27;47619;-80
2021/12/09 07:39:53;;;;;;;;;5.00;2.50;;;;;5.11;82.52;99985.06;5081100;27;45761;-84
2021/12/09 07:42:19;;;;;;;;;3.50;2.50;;;;;5.10;82.36;99979.03;5075012;27;46089;-80
2021/12/09 07:44:44;;;;;;;;;3.00;3.00;;;;;5.11;82.48;99977.28;5066791;28;46501;-82
2021/12/09 07:47:10;;;;;;;;;4.75;4.00;;;;;5.10;82.24;99984.22;5064878;27;47206;-84
2021/12/09 07:49:35;;;;;;;;;3.75;2.50;;;;;5.14;82.27;99988.31;5059056;27;45847;-81
2021/12/09 07:52:01;;;;;;;;;2.00;2.00;;;;;5.10;82.21;99984.22;5074526;27;45901;-80
2021/12/09 07:54:26;;;;;;;;;5.50;2.00;;;;;5.13;82.61;99993.59;5073878;28;45989;-84
2021/12/09 07:56:52;;;;;;;;;4.00;4.00;;;;;5.13;82.37;99997.00;5075377;27;46888;-80
2021/12/09 07:59:17;;;;;;;;;4.50;3.00;;;;;5.04;82.61;99974.19;5067902;28;46091;-77
2021/12/09 08:01:44;;;;;;;;;2.00;2.00;;;;;5.11;82.35;99985.91;5073654;28;46228;-79
2021/12/09 08:04:10;;;;;;;;;5.50;5.00;;;;;5.11;81.80;99985.91;5075431;28;47303;-81
2021/12/09 08:06:36;;;;;;;;;6.00;4.00;;;;;5.11;82.34;100000.63;5060753;28;46279;-78
2021/12/09 08:09:03;;;;;;;;;5.00;4.00;;;;;5.10;82.25;99996.38;5065006;27;45920;-82
2021/12/09 08:11:28;;;;;;;;;4.00;2.00;;;;;5.08;82.47;99999.88;5073947;28;45695;-81
2021/12/09 08:13:54;;;;;;;;;2.50;2.00;;;;;5.06;82.09;99999.16;5069897;27;47721;-79
2021/12/09 08:16:19;;;;;;;;;0.75;0.00;;;;;5.03;82.56;100001.06;5063870;27;46160;-77
2021/12/09 08:18:54;;;;;;;;;5.50;4.00;;;;;4.90;82.32;99989.75;5056601;28;45820;-75
2021/12/09 08:21:22;;;;;;;;;3.50;2.00;;;;;4.99;82.15;99994.38;5061226;27;46164;-78
2021/12/09 08:23:47;;;;;;;;;4.00;4.00;;;;;4.95;82.17;99979.94;5060154;28;46954;-78
2021/12/09 08:26:13;;;;;;;;;4.25;4.00;;;;;4.90;82.34;99968.97;5065038;28;45815;-76
2021/12/09 08:28:46;;;;;;;;;3.00;2.00;;;;;5.03;82.50;99993.28;5063479;27;45828;-75
2021/12/09 08:31:12;;;;;;;;;2.75;1.75;;;;;5.10;82.45;99988.56;5068546;27;45893;-76
2021/12/09 08:33:38;;;;;;;;;7.25;5.00;;;;;5.10;82.43;99993.75;5071036;27;46379;-77
2021/12/09 08:36:04;;;;;;;;;4.00;2.50;;;;;5.09;81.77;99990.34;5068163;27;47184;-78
2021/12/09 08:38:30;;;;;;;;;8.00;4.75;;;;;4.90;81.92;99959.44;5067420;27;45780;-77
2021/12/09 08:40:55;;;;;;;;;4.00;4.00;;;;;5.06;81.61;99986.16;5072170;28;45811;-76
2021/12/09 08:43:22;;;;;;;;;5.00;4.00;;;;;5.05;81.78;99994.88;5069454;27;46424;-77
2021/12/09 08:45:50;;;;;;;;;3.50;3.50;;;;;5.06;81.76;99993.97;5065194;27;46995;-76
2021/12/09 08:48:16;;;;;;;;;2.50;2.50;;;;;5.00;82.22;99981.34;5063030;27;45874;-75
2021/12/09 08:50:44;;;;;;;;;2.50;1.50;;;;;5.10;82.01;99996.38;5063962;27;46777;-78
2021/12/09 08:53:13;;;;;;;;;4.50;2.00;;;;;5.11;81.90;100004.06;5062148;27;47642;-76
2021/12/09 08:55:39;;;;;;;;;4.00;4.00;;;;;5.13;82.31;100011.78;5065704;27;46155;-76
2021/12/09 08:58:05;;;;;;;;;4.00;2.50;;;;;5.11;81.96;100003.22;5070111;27;45997;-78
2021/12/09 09:00:32;;;;;;;;;2.50;2.00;;;;;5.02;82.13;99995.03;5067098;27;45593;-78
2021/12/09 09:03:00;;;;;;;;;3.50;1.75;;;;;5.16;82.45;100019.38;5069696;28;46452;-79
2021/12/09 09:05:28;;;;;;;;;4.25;2.00;;;;;5.15;82.40;100017.69;5058140;27;46262;-80
2021/12/09 09:07:54;;;;;;;;;4.50;4.00;;;;;5.12;81.94;100004.91;5071783;27;45751;-79
2021/12/09 09:10:24;;;;;;;;;1.50;1.00;;;;;5.16;81.59;100006.41;5072363;27;45849;-78
2021/12/09 09:12:52;;;;;;;;;4.00;2.00;;;;;5.28;82.36;100029.06;5061991;27;46002;-77
2021/12/09 09:15:21;;;;;;;;;4.50;4.00;;;;;5.31;82.25;100034.88;5061783;27;46217;-79
2021/12/09 09:17:47;;;;;;;;;5.00;5.00;;;;;5.35;81.70;100038.13;5065344;27;45929;-81
2021/12/09 09:20:15;;;;;;;;;5.50;4.00;;;;;5.39;81.71;100045.69;5058268;27;46590;-74
2021/12/09 09:22:41;;;;;;;;;3.00;1.00;;;;;5.41;82.53;100046.41;5059306;28;46343;-81
2021/12/09 09:25:09;;;;;;;;;2.00;2.00;;;;;5.36;82.27;100026.81;5056788;28;46179;-81
2021/12/09 09:27:35;;;;;;;;;2.00;2.00;;;;;5.44;81.92;100041.03;5067543;28;45908;-82
2021/12/09 09:30:04;;;;;;;;;5.00;4.25;;;;;5.37;82.50;100024.16;5063915;28;45820;-82
2021/12/09 09:32:29;;;;;;;;;7.00;3.50;;;;;5.49;81.61;100052.00;5055215;27;46200;-77
2021/12/09 09:34:55;;;;;;;;;4.25;2.00;;;;;5.54;81.57;100048.28;5056063;28;45685;-81
2021/12/09 09:37:21;;;;;;;;;5.00;5.00;;;;;5.46;81.71;100028.78;5071131;28;45632;-81
2021/12/09 09:39:47;;;;;;;;;4.00;3.50;;;;;5.38;81.57;100023.22;5069784;27;45570;-76
2021/12/09 09:44:48;;;;;;;;;4.00;2.00;;;;;5.69;81.83;100073.34;5062470;28;46295;-75
2021/12/09 09:47:16;;;;;;;;;5.25;4.25;;;;;5.62;82.10;100057.28;5069978;28;46184;-77
2021/12/09 09:49:43;;;;;;;;;4.00;2.50;;;;;5.57;82.04;100054.13;5064291;28;45697;-77
2021/12/09 09:52:10;;;;;;;;;4.00;2.50;;;;;5.79;82.23;100083.09;5055400;28;46980;-80
2021/12/09 09:54:37;;;;;;;;;5.50;2.00;;;;;5.84;81.37;100088.03;5071323;28;46368;-83
2021/12/09 09:57:05;;;;;;;;;4.00;3.50;;;;;5.85;81.67;100079.31;5060853;28;45884;-78
2021/12/09 09:59:31;;;;;;;;;4.25;2.00;;;;;5.92;82.32;100080.66;5063040;28;45901;-79
2021/12/09 10:01:57;;;;;;;;;4.00;4.00;;;;;5.96;81.50;100084.72;5077065;27;45782;-77
2021/12/09 10:04:44;;;;;;;;;4.50;4.00;;;;;6.02;81.57;100080.91;5073604;28;46615;-79
2021/12/09 10:07:11;;;;;;;;;2.00;2.00;;;;;6.06;81.44;100078.03;5065904;27;46212;-79
2021/12/09 10:09:37;;;;;;;;;2.00;2.00;;;;;6.05;81.55;100067.72;5055382;28;45703;-79
2021/12/09 10:12:03;;;;;;;;;2.00;1.00;;;;;6.17;81.61;100073.00;5054612;28;46695;-76
2021/12/09 10:14:32;;;;;;;;;3.50;2.00;;;;;6.05;81.91;100052.13;5057120;28;45939;-78
2021/12/09 10:17:16;;;;;;;;;4.00;2.00;;;;;6.30;81.17;100068.75;5054701;28;47908;-76
2021/12/09 10:19:59;;;;;;;;;8.00;3.50;;;;;6.35;81.54;100068.44;5081828;27;46001;-77
2021/12/09 10:22:29;;;;;;;;;4.00;2.00;;;;;6.38;81.44;100063.03;5062833;27;45983;-77
2021/12/09 10:24:58;;;;;;;;;2.00;1.25;;;;;6.42;81.24;100061.94;5056798;28;46024;-76
2021/12/09 10:27:31;;;;;;;;;2.00;1.50;;;;;6.43;81.64;100045.38;5061849;28;46140;-78
2021/12/09 10:30:15;;;;;;;;;2.00;2.00;;;;;6.51;81.33;100050.94;5073363;27;45895;-75
2021/12/09 10:32:42;;;;;;;;;4.50;1.50;;;;;6.51;81.07;100029.28;5062513;28;46572;-77
2021/12/09 10:35:16;;;;;;;;;4.25;3.00;;;;;6.65;80.92;100043.09;5071969;27;46368;-79
2021/12/09 10:37:43;;;;;;;;;6.75;4.00;;;;;6.71;81.02;100045.28;5059050;28;45679;-79
2021/12/09 10:40:15;;;;;;;;;4.00;3.50;;;;;6.80;80.83;100038.69;5070800;27;45695;-77
2021/12/09 10:42:47;;;;;;;;;2.75;2.75;;;;;6.81;80.90;100027.31;5060182;28;46834;-79
2021/12/09 10:45:23;;;;;;;;;3.00;2.00;;;;;6.95;80.93;100045.50;5056999;27;46198;-78
2021/12/09 10:48:16;;;;;;;;;2.25;2.25;;;;;7.01;80.90;100036.44;5054049;28;46313;-78
2021/12/09 10:51:06;;;;;;;;;10.50;9.00;;;;;7.07;81.02;100036.84;5056444;28;45762;-77
2021/12/09 10:53:46;;;;;;;;;4.50;2.00;;;;;7.12;80.69;100031.38;5069797;28;47282;-80
2021/12/09 10:56:22;;;;;;;;;5.50;5.00;;;;;7.20;80.46;100033.44;5066527;28;46485;-81
2021/12/09 10:58:48;;;;;;;;;5.00;2.00;;;;;7.26;80.76;100025.22;5057930;28;45818;-77
2021/12/09 11:01:19;;;;;;;;;2.75;1.25;;;;;7.29;80.84;100020.63;5065502;28;45720;-77
2021/12/09 11:03:54;;;;;;;;;2.00;2.00;;;;;7.34;80.64;100025.56;5069878;28;47811;-78
2021/12/09 11:06:38;;;;;;;;;5.50;3.00;;;;;7.37;80.57;100023.56;5057099;28;46053;-76
2021/12/09 11:09:07;;;;;;;;;2.25;1.75;;;;;7.43;80.95;100022.34;5059317;27;45880;-77
2021/12/09 11:11:41;;;;;;;;;3.25;2.00;;;;;7.44;80.72;100021.41;5069011;28;45764;-77
2021/12/09 11:14:11;;;;;;;;;2.75;1.75;;;;;7.46;80.66;100019.50;5070684;27;45708;-79
2021/12/09 11:16:46;;;;;;;;;3.25;2.00;;;;;7.50;80.72;100007.97;5075571;27;46283;-80
2021/12/09 11:19:24;;;;;;;;;3.00;2.00;;;;;7.53;80.35;100007.72;5073339;27;45916;-76
2021/12/09 11:21:56;;;;;;;;;2.00;2.00;;;;;7.57;80.47;100010.03;5072948;28;46022;-75
2021/12/09 11:24:27;;;;;;;;;4.50;3.00;;;;;7.51;80.40;99992.19;5073145;28;47655;-78
2021/12/09 11:27:01;;;;;;;;;1.75;1.75;;;;;7.70;80.33;100015.25;5072703;28;47071;-77
2021/12/09 11:29:43;;;;;;;;;4.00;2.00;;;;;7.74;80.32;100006.25;5066463;28;46926;-77
2021/12/09 11:32:21;;;;;;;;;2.00;2.00;;;;;7.75;80.40;99994.06;5064243;28;46024;-74
2021/12/09 11:35:09;;;;;;;;;2.00;1.50;;;;;7.82;80.07;100005.75;5069603;28;48758;-77
2021/12/09 11:37:45;;;;;;;;;2.00;1.00;;;;;7.86;80.21;99995.00;5070047;28;46210;-77
2021/12/09 11:40:26;;;;;;;;;1.50;1.00;;;;;7.90;80.59;99987.78;5057969;28;46047;-79
2021/12/09 11:42:56;;;;;;;;;9.50;9.25;;;;;7.95;79.80;99993.50;5076805;27;45701;-78
2021/12/09 11:45:27;;;;;;;;;5.25;2.50;;;;;8.00;79.81;99991.41;5079782;27;46461;-78
2021/12/09 11:47:54;;;;;;;;;3.50;2.00;;;;;8.07;79.80;99994.41;5075735;27;46113;-83
2021/12/09 11:50:26;;;;;;;;;3.00;2.75;;;;;8.10;79.74;99992.41;5060194;28;46303;-84
2021/12/09 11:52:54;;;;;;;;;2.25;1.25;;;;;8.00;79.76;99986.19;5066245;28;46029;-82
2021/12/09 11:55:26;;;;;;;;;1.75;1.75;;;;;8.09;79.23;99982.94;5074674;28;46538;-77
2021/12/09 11:58:02;;;;;;;;;3.50;2.00;;;;;8.15;79.18;99986.91;5074106;27;47137;-79
2021/12/09 12:21:08;;;;;;;;;3.00;1.00;;;;;8.38;78.82;99958.22;5064546;28;46107;-79
2021/12/09 12:29:14;;;;;;;;;2.50;1.00;;;;;8.43;78.93;99952.66;5073394;27;45723;-81
2021/12/09 12:37:54;;;;;;;;;1.25;1.00;;;;;8.55;78.44;99950.94;5070866;28;45814;-79
2021/12/09 12:40:26;;;;;;;;;1.50;1.50;;;;;8.53;78.95;99952.84;5071460;28;46395;-79